sensor_id;sensor_type;location;lat;lon;timestamp;temperature;humidity
19435;DHT22;9853;50.848;4.108;2023-06-22T00:00:13;20.50;99.90
19435;DHT22;9853;50.848;4.108;2023-06-22T00:02:14;20.40;99.90
19435;DHT22;9853;50.848;4.108;2023-06-22T00:04:15;20.40;99.90
19435;DHT22;9853;50.848;4.108;2023-06-22T00:06:15;20.70;99.90
19435;DHT22;9853;50.848;4.108;2023-06-22T00:08:17;20.50;99.90
19435;DHT22;9853;50.848;4.108;2023-06-22T00:10:18;20.30;99.90
19435;DHT22;9853;50.848;4.108;2023-06-22T00:12:19;20.40;99.90
19435;DHT22;9853;50.848;4.108;2023-06-22T00:14:19;20.30;99.90
19435;DHT22;9853;50.848;4.108;2023-06-22T00:16:20;20.20;99.90
19435;DHT22;9853;50.848;4.108;2023-06-22T00:18:21;20.80;99.90
19435;DHT22;9853;50.848;4.108;2023-06-22T00:20:21;21.00;99.90
19435;DHT22;9853;50.848;4.108;2023-06-22T00:22:23;20.70;99.90
19435;DHT22;9853;50.848;4.108;2023-06-22T00:24:28;20.50;99.90
19435;DHT22;9853;50.848;4.108;2023-06-22T00:26:29;20.30;99.90
19435;DHT22;9853;50.848;4.108;2023-06-22T00:28:30;20.30;99.90
19435;DHT22;9853;50.848;4.108;2023-06-22T00:30:32;20.50;99.90
19435;DHT22;9853;50.848;4.108;2023-06-22T00:32:32;20.70;99.90
19435;DHT22;9853;50.848;4.108;2023-06-22T00:34:33;20.90;99.90
19435;DHT22;9853;50.848;4.108;2023-06-22T00:36:35;20.90;99.90
19435;DHT22;9853;50.848;4.108;2023-06-22T00:38:37;20.50;99.90
19435;DHT22;9853;50.848;4.108;2023-06-22T00:40:40;20.20;99.90
19435;DHT22;9853;50.848;4.108;2023-06-22T00:42:41;19.90;99.90
19435;DHT22;9853;50.848;4.108;2023-06-22T00:44:42;20.20;99.90
19435;DHT22;9853;50.848;4.108;2023-06-22T00:46:44;20.70;99.90
19435;DHT22;9853;50.848;4.108;2023-06-22T00:48:45;20.80;99.90
19435;DHT22;9853;50.848;4.108;2023-06-22T00:50:45;20.30;99.90
19435;DHT22;9853;50.848;4.108;2023-06-22T00:52:53;20.30;99.90
19435;DHT22;9853;50.848;4.108;2023-06-22T00:54:54;20.70;99.90
19435;DHT22;9853;50.848;4.108;2023-06-22T00:56:58;20.50;99.90
19435;DHT22;9853;50.848;4.108;2023-06-22T00:58:59;20.80;99.90
19435;DHT22;9853;50.848;4.108;2023-06-22T01:01:00;21.10;99.90
19435;DHT22;9853;50.848;4.108;2023-06-22T01:03:03;21.20;99.90
19435;DHT22;9853;50.848;4.108;2023-06-22T01:05:04;21.10;99.90
19435;DHT22;9853;50.848;4.108;2023-06-22T01:09:31;21.20;99.90
19435;DHT22;9853;50.848;4.108;2023-06-22T01:11:36;21.30;99.90
19435;DHT22;9853;50.848;4.108;2023-06-22T01:16:02;21.40;99.90
19435;DHT22;9853;50.848;4.108;2023-06-22T01:18:04;21.40;99.90
19435;DHT22;9853;50.848;4.108;2023-06-22T01:20:08;21.20;99.90
19435;DHT22;9853;50.848;4.108;2023-06-22T01:22:11;21.30;99.90
19435;DHT22;9853;50.848;4.108;2023-06-22T01:24:26;21.40;99.90
19435;DHT22;9853;50.848;4.108;2023-06-22T01:29:04;20.70;99.90
19435;DHT22;9853;50.848;4.108;2023-06-22T01:31:05;20.90;99.90
19435;DHT22;9853;50.848;4.108;2023-06-22T01:33:07;21.00;99.90
19435;DHT22;9853;50.848;4.108;2023-06-22T01:35:10;21.10;99.90
19435;DHT22;9853;50.848;4.108;2023-06-22T01:37:12;21.00;99.90
19435;DHT22;9853;50.848;4.108;2023-06-22T01:39:14;21.10;99.90
19435;DHT22;9853;50.848;4.108;2023-06-22T01:41:16;21.10;99.90
19435;DHT22;9853;50.848;4.108;2023-06-22T01:43:18;21.10;99.90
19435;DHT22;9853;50.848;4.108;2023-06-22T01:45:19;21.10;99.90
19435;DHT22;9853;50.848;4.108;2023-06-22T01:47:22;21.10;99.90
19435;DHT22;9853;50.848;4.108;2023-06-22T01:49:22;21.10;99.90
19435;DHT22;9853;50.848;4.108;2023-06-22T01:51:24;21.00;99.90
19435;DHT22;9853;50.848;4.108;2023-06-22T01:53:25;20.70;99.90
19435;DHT22;9853;50.848;4.108;2023-06-22T01:55:26;20.70;99.90
19435;DHT22;9853;50.848;4.108;2023-06-22T01:57:27;20.70;99.90
19435;DHT22;9853;50.848;4.108;2023-06-22T02:00:03;20.40;99.90
19435;DHT22;9853;50.848;4.108;2023-06-22T02:02:18;20.50;99.90
19435;DHT22;9853;50.848;4.108;2023-06-22T02:04:24;20.60;99.90
19435;DHT22;9853;50.848;4.108;2023-06-22T02:06:31;20.60;99.90
19435;DHT22;9853;50.848;4.108;2023-06-22T02:08:54;20.60;99.90
19435;DHT22;9853;50.848;4.108;2023-06-22T02:10:56;20.40;99.90
19435;DHT22;9853;50.848;4.108;2023-06-22T02:12:59;20.10;99.90
19435;DHT22;9853;50.848;4.108;2023-06-22T02:15:01;19.90;99.90
19435;DHT22;9853;50.848;4.108;2023-06-22T02:17:02;20.10;99.90
19435;DHT22;9853;50.848;4.108;2023-06-22T02:19:05;20.40;99.90
19435;DHT22;9853;50.848;4.108;2023-06-22T02:21:08;20.70;99.90
19435;DHT22;9853;50.848;4.108;2023-06-22T02:23:09;20.40;99.90
19435;DHT22;9853;50.848;4.108;2023-06-22T02:25:10;20.20;99.90
19435;DHT22;9853;50.848;4.108;2023-06-22T02:27:11;20.20;99.90
19435;DHT22;9853;50.848;4.108;2023-06-22T02:29:11;20.40;99.90
19435;DHT22;9853;50.848;4.108;2023-06-22T02:31:12;20.30;99.90
19435;DHT22;9853;50.848;4.108;2023-06-22T02:33:13;20.10;99.90
19435;DHT22;9853;50.848;4.108;2023-06-22T02:35:13;20.20;99.90
19435;DHT22;9853;50.848;4.108;2023-06-22T02:37:14;20.20;99.90
19435;DHT22;9853;50.848;4.108;2023-06-22T02:39:15;20.10;99.90
19435;DHT22;9853;50.848;4.108;2023-06-22T02:41:16;20.10;99.90
19435;DHT22;9853;50.848;4.108;2023-06-22T02:43:20;20.20;99.90
19435;DHT22;9853;50.848;4.108;2023-06-22T02:45:20;20.30;99.90
19435;DHT22;9853;50.848;4.108;2023-06-22T02:47:22;20.10;99.90
19435;DHT22;9853;50.848;4.108;2023-06-22T02:49:23;20.20;99.90
19435;DHT22;9853;50.848;4.108;2023-06-22T02:51:24;20.40;99.90
19435;DHT22;9853;50.848;4.108;2023-06-22T02:53:24;20.30;99.90
19435;DHT22;9853;50.848;4.108;2023-06-22T02:55:25;20.30;99.90
19435;DHT22;9853;50.848;4.108;2023-06-22T02:57:30;20.40;99.90
19435;DHT22;9853;50.848;4.108;2023-06-22T02:59:31;20.60;99.90
19435;DHT22;9853;50.848;4.108;2023-06-22T03:01:37;20.50;99.90
19435;DHT22;9853;50.848;4.108;2023-06-22T03:03:42;20.40;99.90
19435;DHT22;9853;50.848;4.108;2023-06-22T03:05:43;20.20;99.90
19435;DHT22;9853;50.848;4.108;2023-06-22T03:07:44;20.00;99.90
19435;DHT22;9853;50.848;4.108;2023-06-22T03:09:45;19.90;99.90
19435;DHT22;9853;50.848;4.108;2023-06-22T03:11:45;19.40;99.90
19435;DHT22;9853;50.848;4.108;2023-06-22T03:13:46;19.30;99.90
19435;DHT22;9853;50.848;4.108;2023-06-22T03:15:47;19.10;99.90
19435;DHT22;9853;50.848;4.108;2023-06-22T03:17:48;19.10;99.90
19435;DHT22;9853;50.848;4.108;2023-06-22T03:19:49;19.00;99.90
19435;DHT22;9853;50.848;4.108;2023-06-22T03:21:49;19.00;99.90
19435;DHT22;9853;50.848;4.108;2023-06-22T03:23:50;18.90;99.90
19435;DHT22;9853;50.848;4.108;2023-06-22T03:25:51;18.80;99.90
19435;DHT22;9853;50.848;4.108;2023-06-22T03:27:52;18.80;99.90
19435;DHT22;9853;50.848;4.108;2023-06-22T03:29:53;18.70;99.90
19435;DHT22;9853;50.848;4.108;2023-06-22T03:31:53;18.80;99.90
19435;DHT22;9853;50.848;4.108;2023-06-22T03:33:54;19.00;99.90
19435;DHT22;9853;50.848;4.108;2023-06-22T03:35:57;19.30;99.90
19435;DHT22;9853;50.848;4.108;2023-06-22T03:37:58;19.70;99.90
19435;DHT22;9853;50.848;4.108;2023-06-22T03:39:58;20.00;99.90
19435;DHT22;9853;50.848;4.108;2023-06-22T03:41:59;19.80;99.90
19435;DHT22;9853;50.848;4.108;2023-06-22T03:44:00;19.50;99.90
19435;DHT22;9853;50.848;4.108;2023-06-22T03:46:01;19.60;99.90
19435;DHT22;9853;50.848;4.108;2023-06-22T03:48:02;19.80;99.90
19435;DHT22;9853;50.848;4.108;2023-06-22T03:50:03;19.50;99.90
19435;DHT22;9853;50.848;4.108;2023-06-22T03:52:05;19.50;99.90
19435;DHT22;9853;50.848;4.108;2023-06-22T03:54:06;19.30;99.90
19435;DHT22;9853;50.848;4.108;2023-06-22T03:56:06;19.00;99.90
19435;DHT22;9853;50.848;4.108;2023-06-22T03:58:07;19.20;99.90
19435;DHT22;9853;50.848;4.108;2023-06-22T04:00:10;19.20;99.90
19435;DHT22;9853;50.848;4.108;2023-06-22T04:02:15;19.10;99.90
19435;DHT22;9853;50.848;4.108;2023-06-22T04:04:16;19.10;99.90
19435;DHT22;9853;50.848;4.108;2023-06-22T04:06:17;19.10;99.90
19435;DHT22;9853;50.848;4.108;2023-06-22T04:08:18;19.10;99.90
19435;DHT22;9853;50.848;4.108;2023-06-22T04:10:19;19.20;99.90
19435;DHT22;9853;50.848;4.108;2023-06-22T04:12:20;19.20;99.90
19435;DHT22;9853;50.848;4.108;2023-06-22T04:14:20;19.40;99.90
19435;DHT22;9853;50.848;4.108;2023-06-22T04:16:21;19.50;99.90
19435;DHT22;9853;50.848;4.108;2023-06-22T04:18:22;19.60;99.90
19435;DHT22;9853;50.848;4.108;2023-06-22T04:20:23;19.70;99.90
19435;DHT22;9853;50.848;4.108;2023-06-22T04:22:27;19.80;99.90
19435;DHT22;9853;50.848;4.108;2023-06-22T04:24:27;20.00;99.90
19435;DHT22;9853;50.848;4.108;2023-06-22T04:26:28;20.00;99.90
19435;DHT22;9853;50.848;4.108;2023-06-22T04:28:29;20.10;99.90
19435;DHT22;9853;50.848;4.108;2023-06-22T04:30:32;20.00;99.90
19435;DHT22;9853;50.848;4.108;2023-06-22T04:32:34;20.10;99.90
19435;DHT22;9853;50.848;4.108;2023-06-22T04:34:36;20.10;99.90
19435;DHT22;9853;50.848;4.108;2023-06-22T04:36:40;20.30;99.90
19435;DHT22;9853;50.848;4.108;2023-06-22T04:38:41;20.30;99.90
19435;DHT22;9853;50.848;4.108;2023-06-22T04:40:42;20.60;99.90
19435;DHT22;9853;50.848;4.108;2023-06-22T04:42:43;21.00;99.90
19435;DHT22;9853;50.848;4.108;2023-06-22T04:44:52;20.90;99.90
19435;DHT22;9853;50.848;4.108;2023-06-22T04:46:56;20.70;99.90
19435;DHT22;9853;50.848;4.108;2023-06-22T04:49:09;21.20;99.90
19435;DHT22;9853;50.848;4.108;2023-06-22T04:51:12;21.30;99.90
19435;DHT22;9853;50.848;4.108;2023-06-22T04:53:13;20.50;99.90
19435;DHT22;9853;50.848;4.108;2023-06-22T04:55:14;20.60;99.90
19435;DHT22;9853;50.848;4.108;2023-06-22T04:57:18;21.00;99.90
19435;DHT22;9853;50.848;4.108;2023-06-22T04:59:19;20.80;99.90
19435;DHT22;9853;50.848;4.108;2023-06-22T05:01:20;20.60;99.90
19435;DHT22;9853;50.848;4.108;2023-06-22T05:03:22;20.80;99.90
19435;DHT22;9853;50.848;4.108;2023-06-22T05:05:26;20.80;99.90
19435;DHT22;9853;50.848;4.108;2023-06-22T05:07:26;20.80;99.90
19435;DHT22;9853;50.848;4.108;2023-06-22T05:09:28;20.80;99.90
19435;DHT22;9853;50.848;4.108;2023-06-22T05:11:29;20.60;99.90
19435;DHT22;9853;50.848;4.108;2023-06-22T05:13:30;20.80;99.90
19435;DHT22;9853;50.848;4.108;2023-06-22T05:15:30;20.90;99.90
19435;DHT22;9853;50.848;4.108;2023-06-22T05:17:37;20.60;99.90
19435;DHT22;9853;50.848;4.108;2023-06-22T05:19:43;20.00;99.90
19435;DHT22;9853;50.848;4.108;2023-06-22T05:21:45;19.70;99.90
19435;DHT22;9853;50.848;4.108;2023-06-22T05:23:46;19.40;99.90
19435;DHT22;9853;50.848;4.108;2023-06-22T05:25:47;19.40;99.90
19435;DHT22;9853;50.848;4.108;2023-06-22T05:27:47;19.80;99.90
19435;DHT22;9853;50.848;4.108;2023-06-22T05:29:48;19.70;99.90
19435;DHT22;9853;50.848;4.108;2023-06-22T05:31:49;19.40;99.90
19435;DHT22;9853;50.848;4.108;2023-06-22T05:33:51;19.60;99.90
19435;DHT22;9853;50.848;4.108;2023-06-22T05:35:52;19.70;99.90
19435;DHT22;9853;50.848;4.108;2023-06-22T05:37:53;20.00;99.90
19435;DHT22;9853;50.848;4.108;2023-06-22T05:39:54;20.10;99.90
19435;DHT22;9853;50.848;4.108;2023-06-22T05:41:55;20.00;99.90
19435;DHT22;9853;50.848;4.108;2023-06-22T05:43:56;20.00;99.90
19435;DHT22;9853;50.848;4.108;2023-06-22T05:45:57;20.20;99.90
19435;DHT22;9853;50.848;4.108;2023-06-22T05:47:58;20.20;99.90
19435;DHT22;9853;50.848;4.108;2023-06-22T05:49:59;20.20;99.90
19435;DHT22;9853;50.848;4.108;2023-06-22T05:52:00;20.10;99.90
19435;DHT22;9853;50.848;4.108;2023-06-22T05:54:00;20.00;99.90
19435;DHT22;9853;50.848;4.108;2023-06-22T05:56:01;20.30;99.90
19435;DHT22;9853;50.848;4.108;2023-06-22T05:58:02;20.70;99.90
19435;DHT22;9853;50.848;4.108;2023-06-22T06:00:04;20.70;99.90
19435;DHT22;9853;50.848;4.108;2023-06-22T06:02:08;20.80;99.90
19435;DHT22;9853;50.848;4.108;2023-06-22T06:04:09;20.60;99.90
19435;DHT22;9853;50.848;4.108;2023-06-22T06:06:10;20.40;99.90
19435;DHT22;9853;50.848;4.108;2023-06-22T06:08:11;20.40;99.90
19435;DHT22;9853;50.848;4.108;2023-06-22T06:10:13;20.20;99.90
19435;DHT22;9853;50.848;4.108;2023-06-22T06:12:13;20.00;99.90
19435;DHT22;9853;50.848;4.108;2023-06-22T06:14:14;20.20;99.90
19435;DHT22;9853;50.848;4.108;2023-06-22T06:16:15;19.90;99.90
19435;DHT22;9853;50.848;4.108;2023-06-22T06:18:15;19.90;99.90
19435;DHT22;9853;50.848;4.108;2023-06-22T06:20:20;20.10;99.90
19435;DHT22;9853;50.848;4.108;2023-06-22T06:22:21;20.30;99.90
19435;DHT22;9853;50.848;4.108;2023-06-22T06:24:23;20.30;99.90
19435;DHT22;9853;50.848;4.108;2023-06-22T06:26:24;20.20;99.90
19435;DHT22;9853;50.848;4.108;2023-06-22T06:28:34;20.30;99.90
19435;DHT22;9853;50.848;4.108;2023-06-22T06:30:35;20.10;99.90
19435;DHT22;9853;50.848;4.108;2023-06-22T06:32:37;20.20;99.90
19435;DHT22;9853;50.848;4.108;2023-06-22T06:34:38;20.20;99.90
19435;DHT22;9853;50.848;4.108;2023-06-22T06:36:39;20.20;99.90
19435;DHT22;9853;50.848;4.108;2023-06-22T06:38:40;20.20;99.90
19435;DHT22;9853;50.848;4.108;2023-06-22T06:40:40;20.20;99.90
19435;DHT22;9853;50.848;4.108;2023-06-22T06:42:43;20.20;99.90
19435;DHT22;9853;50.848;4.108;2023-06-22T06:44:45;20.40;99.90
19435;DHT22;9853;50.848;4.108;2023-06-22T06:46:46;20.30;99.90
19435;DHT22;9853;50.848;4.108;2023-06-22T06:48:47;20.40;99.90
19435;DHT22;9853;50.848;4.108;2023-06-22T06:50:47;20.30;99.90
19435;DHT22;9853;50.848;4.108;2023-06-22T06:52:48;20.40;99.90
19435;DHT22;9853;50.848;4.108;2023-06-22T06:54:51;20.30;99.90
19435;DHT22;9853;50.848;4.108;2023-06-22T06:56:52;20.30;99.90
19435;DHT22;9853;50.848;4.108;2023-06-22T06:58:53;20.30;99.90
19435;DHT22;9853;50.848;4.108;2023-06-22T07:00:54;20.30;99.90
19435;DHT22;9853;50.848;4.108;2023-06-22T07:02:55;20.30;99.90
19435;DHT22;9853;50.848;4.108;2023-06-22T07:04:56;20.30;99.90
19435;DHT22;9853;50.848;4.108;2023-06-22T07:06:58;20.40;99.90
19435;DHT22;9853;50.848;4.108;2023-06-22T07:08:59;20.40;99.90
19435;DHT22;9853;50.848;4.108;2023-06-22T07:11:00;20.40;99.90
19435;DHT22;9853;50.848;4.108;2023-06-22T07:13:01;20.50;99.90
19435;DHT22;9853;50.848;4.108;2023-06-22T07:15:03;20.50;99.90
19435;DHT22;9853;50.848;4.108;2023-06-22T07:17:04;20.60;99.90
19435;DHT22;9853;50.848;4.108;2023-06-22T07:19:05;20.70;99.90
19435;DHT22;9853;50.848;4.108;2023-06-22T07:21:06;20.60;99.90
19435;DHT22;9853;50.848;4.108;2023-06-22T07:23:07;20.60;99.90
19435;DHT22;9853;50.848;4.108;2023-06-22T07:25:08;20.60;99.90
19435;DHT22;9853;50.848;4.108;2023-06-22T07:27:09;20.50;99.90
19435;DHT22;9853;50.848;4.108;2023-06-22T07:29:12;20.60;99.90
19435;DHT22;9853;50.848;4.108;2023-06-22T07:31:13;20.60;99.90
19435;DHT22;9853;50.848;4.108;2023-06-22T07:33:14;20.70;99.90
19435;DHT22;9853;50.848;4.108;2023-06-22T07:35:14;20.70;99.90
19435;DHT22;9853;50.848;4.108;2023-06-22T07:37:17;20.70;99.90
19435;DHT22;9853;50.848;4.108;2023-06-22T07:39:17;20.80;99.90
19435;DHT22;9853;50.848;4.108;2023-06-22T07:41:18;20.90;99.90
19435;DHT22;9853;50.848;4.108;2023-06-22T07:43:20;20.90;99.90
19435;DHT22;9853;50.848;4.108;2023-06-22T07:45:20;20.90;99.90
19435;DHT22;9853;50.848;4.108;2023-06-22T07:47:21;20.90;99.90
19435;DHT22;9853;50.848;4.108;2023-06-22T07:49:25;20.90;99.90
19435;DHT22;9853;50.848;4.108;2023-06-22T07:51:26;21.00;99.90
19435;DHT22;9853;50.848;4.108;2023-06-22T07:53:27;21.10;99.90
19435;DHT22;9853;50.848;4.108;2023-06-22T07:55:28;21.10;99.90
19435;DHT22;9853;50.848;4.108;2023-06-22T07:57:29;21.20;99.90
19435;DHT22;9853;50.848;4.108;2023-06-22T07:59:34;21.10;99.90
19435;DHT22;9853;50.848;4.108;2023-06-22T08:01:34;21.10;99.90
19435;DHT22;9853;50.848;4.108;2023-06-22T08:03:35;21.30;99.90
19435;DHT22;9853;50.848;4.108;2023-06-22T08:05:36;21.30;99.90
19435;DHT22;9853;50.848;4.108;2023-06-22T08:07:37;21.40;99.90
19435;DHT22;9853;50.848;4.108;2023-06-22T08:09:38;21.50;99.90
19435;DHT22;9853;50.848;4.108;2023-06-22T08:11:38;21.50;99.90
19435;DHT22;9853;50.848;4.108;2023-06-22T08:13:39;21.50;99.90
19435;DHT22;9853;50.848;4.108;2023-06-22T08:15:40;21.50;99.90
19435;DHT22;9853;50.848;4.108;2023-06-22T08:17:41;21.60;99.90
19435;DHT22;9853;50.848;4.108;2023-06-22T08:19:41;21.70;99.90
19435;DHT22;9853;50.848;4.108;2023-06-22T08:21:42;21.70;99.90
19435;DHT22;9853;50.848;4.108;2023-06-22T08:23:43;21.90;99.90
19435;DHT22;9853;50.848;4.108;2023-06-22T08:25:44;22.00;99.90
19435;DHT22;9853;50.848;4.108;2023-06-22T08:27:45;22.00;99.90
19435;DHT22;9853;50.848;4.108;2023-06-22T08:29:47;21.90;99.90
19435;DHT22;9853;50.848;4.108;2023-06-22T08:31:48;21.60;99.90
19435;DHT22;9853;50.848;4.108;2023-06-22T08:33:48;21.70;99.90
19435;DHT22;9853;50.848;4.108;2023-06-22T08:35:49;21.60;99.90
19435;DHT22;9853;50.848;4.108;2023-06-22T08:37:50;21.40;99.90
19435;DHT22;9853;50.848;4.108;2023-06-22T08:39:59;21.40;99.90
19435;DHT22;9853;50.848;4.108;2023-06-22T08:42:00;21.50;99.90
19435;DHT22;9853;50.848;4.108;2023-06-22T08:44:01;21.80;99.90
19435;DHT22;9853;50.848;4.108;2023-06-22T08:46:01;21.80;99.90
19435;DHT22;9853;50.848;4.108;2023-06-22T08:48:03;21.80;99.90
19435;DHT22;9853;50.848;4.108;2023-06-22T08:50:05;21.80;99.90
19435;DHT22;9853;50.848;4.108;2023-06-22T08:52:06;21.80;99.90
19435;DHT22;9853;50.848;4.108;2023-06-22T08:54:08;22.00;99.90
19435;DHT22;9853;50.848;4.108;2023-06-22T08:56:09;22.10;99.90
19435;DHT22;9853;50.848;4.108;2023-06-22T08:58:10;22.20;99.90
19435;DHT22;9853;50.848;4.108;2023-06-22T09:00:11;22.30;99.90
19435;DHT22;9853;50.848;4.108;2023-06-22T09:02:19;22.20;99.90
19435;DHT22;9853;50.848;4.108;2023-06-22T09:04:20;22.20;99.90
19435;DHT22;9853;50.848;4.108;2023-06-22T09:06:22;22.20;99.90
19435;DHT22;9853;50.848;4.108;2023-06-22T09:08:23;22.10;99.90
19435;DHT22;9853;50.848;4.108;2023-06-22T09:10:24;21.80;99.90
19435;DHT22;9853;50.848;4.108;2023-06-22T09:12:25;21.80;99.90
19435;DHT22;9853;50.848;4.108;2023-06-22T09:14:27;21.70;99.90
19435;DHT22;9853;50.848;4.108;2023-06-22T09:16:28;21.60;99.90
19435;DHT22;9853;50.848;4.108;2023-06-22T09:18:29;21.60;99.90
19435;DHT22;9853;50.848;4.108;2023-06-22T09:20:30;21.50;99.90
19435;DHT22;9853;50.848;4.108;2023-06-22T09:22:31;21.60;99.90
19435;DHT22;9853;50.848;4.108;2023-06-22T09:24:32;21.60;99.90
19435;DHT22;9853;50.848;4.108;2023-06-22T09:26:33;21.70;99.90
19435;DHT22;9853;50.848;4.108;2023-06-22T09:28:34;22.30;99.90
19435;DHT22;9853;50.848;4.108;2023-06-22T09:30:35;22.70;99.90
19435;DHT22;9853;50.848;4.108;2023-06-22T09:32:35;22.70;99.90
19435;DHT22;9853;50.848;4.108;2023-06-22T09:34:36;22.50;99.90
19435;DHT22;9853;50.848;4.108;2023-06-22T09:36:37;22.40;99.90
19435;DHT22;9853;50.848;4.108;2023-06-22T09:38:40;22.20;99.90
19435;DHT22;9853;50.848;4.108;2023-06-22T09:40:40;22.00;99.90
19435;DHT22;9853;50.848;4.108;2023-06-22T09:42:41;22.20;99.90
19435;DHT22;9853;50.848;4.108;2023-06-22T09:44:42;21.80;99.90
19435;DHT22;9853;50.848;4.108;2023-06-22T09:46:43;21.60;99.90
19435;DHT22;9853;50.848;4.108;2023-06-22T09:48:44;21.40;99.90
19435;DHT22;9853;50.848;4.108;2023-06-22T09:50:45;21.00;99.90
19435;DHT22;9853;50.848;4.108;2023-06-22T09:52:46;20.90;99.90
19435;DHT22;9853;50.848;4.108;2023-06-22T09:54:51;20.90;99.90
19435;DHT22;9853;50.848;4.108;2023-06-22T09:56:51;21.00;99.90
19435;DHT22;9853;50.848;4.108;2023-06-22T09:58:52;21.20;99.90
19435;DHT22;9853;50.848;4.108;2023-06-22T10:00:53;21.20;99.90
19435;DHT22;9853;50.848;4.108;2023-06-22T10:02:54;21.20;99.90
19435;DHT22;9853;50.848;4.108;2023-06-22T10:04:56;21.30;99.90
19435;DHT22;9853;50.848;4.108;2023-06-22T10:06:57;21.50;99.90
19435;DHT22;9853;50.848;4.108;2023-06-22T10:08:57;21.50;99.90
19435;DHT22;9853;50.848;4.108;2023-06-22T10:10:58;21.30;99.90
19435;DHT22;9853;50.848;4.108;2023-06-22T10:13:08;21.60;99.90
19435;DHT22;9853;50.848;4.108;2023-06-22T10:15:11;21.80;99.90
19435;DHT22;9853;50.848;4.108;2023-06-22T10:17:12;22.30;99.90
19435;DHT22;9853;50.848;4.108;2023-06-22T10:19:12;22.20;99.90
19435;DHT22;9853;50.848;4.108;2023-06-22T10:21:14;22.00;99.90
19435;DHT22;9853;50.848;4.108;2023-06-22T10:23:14;21.60;99.90
19435;DHT22;9853;50.848;4.108;2023-06-22T10:25:15;20.90;99.90
19435;DHT22;9853;50.848;4.108;2023-06-22T10:27:16;20.30;99.90
19435;DHT22;9853;50.848;4.108;2023-06-22T10:29:17;20.60;99.90
19435;DHT22;9853;50.848;4.108;2023-06-22T10:31:18;20.70;99.90
19435;DHT22;9853;50.848;4.108;2023-06-22T10:33:18;20.50;99.90
19435;DHT22;9853;50.848;4.108;2023-06-22T10:35:19;20.00;99.90
19435;DHT22;9853;50.848;4.108;2023-06-22T10:37:20;19.70;99.90
19435;DHT22;9853;50.848;4.108;2023-06-22T10:39:21;19.00;99.90
19435;DHT22;9853;50.848;4.108;2023-06-22T10:41:22;18.60;99.90
19435;DHT22;9853;50.848;4.108;2023-06-22T10:43:22;18.20;99.90
19435;DHT22;9853;50.848;4.108;2023-06-22T10:45:23;18.00;99.90
19435;DHT22;9853;50.848;4.108;2023-06-22T10:47:24;17.70;99.90
19435;DHT22;9853;50.848;4.108;2023-06-22T10:49:24;17.60;99.90
19435;DHT22;9853;50.848;4.108;2023-06-22T10:51:25;17.50;99.90
19435;DHT22;9853;50.848;4.108;2023-06-22T10:53:26;17.50;99.90
19435;DHT22;9853;50.848;4.108;2023-06-22T10:55:27;17.50;99.90
19435;DHT22;9853;50.848;4.108;2023-06-22T10:57:27;17.60;99.90
19435;DHT22;9853;50.848;4.108;2023-06-22T10:59:28;17.60;99.90
19435;DHT22;9853;50.848;4.108;2023-06-22T11:01:29;17.60;99.90
19435;DHT22;9853;50.848;4.108;2023-06-22T11:03:31;17.70;99.90
19435;DHT22;9853;50.848;4.108;2023-06-22T11:05:32;17.70;99.90
19435;DHT22;9853;50.848;4.108;2023-06-22T11:07:33;17.80;99.90
19435;DHT22;9853;50.848;4.108;2023-06-22T11:09:34;17.80;99.90
19435;DHT22;9853;50.848;4.108;2023-06-22T11:11:34;17.80;99.90
19435;DHT22;9853;50.848;4.108;2023-06-22T11:13:35;17.80;99.90
19435;DHT22;9853;50.848;4.108;2023-06-22T11:15:36;17.90;99.90
19435;DHT22;9853;50.848;4.108;2023-06-22T11:17:37;18.00;99.90
19435;DHT22;9853;50.848;4.108;2023-06-22T11:19:38;18.20;99.90
19435;DHT22;9853;50.848;4.108;2023-06-22T11:21:38;18.30;99.90
19435;DHT22;9853;50.848;4.108;2023-06-22T11:23:39;18.30;99.90
19435;DHT22;9853;50.848;4.108;2023-06-22T11:25:40;18.30;99.90
19435;DHT22;9853;50.848;4.108;2023-06-22T11:27:42;18.10;99.90
19435;DHT22;9853;50.848;4.108;2023-06-22T11:29:43;18.20;99.90
19435;DHT22;9853;50.848;4.108;2023-06-22T11:31:44;18.20;99.90
19435;DHT22;9853;50.848;4.108;2023-06-22T11:33:45;18.40;99.90
19435;DHT22;9853;50.848;4.108;2023-06-22T11:35:48;18.60;99.90
19435;DHT22;9853;50.848;4.108;2023-06-22T11:37:49;18.70;99.90
19435;DHT22;9853;50.848;4.108;2023-06-22T11:39:50;18.70;99.90
19435;DHT22;9853;50.848;4.108;2023-06-22T11:41:50;18.70;99.90
19435;DHT22;9853;50.848;4.108;2023-06-22T11:43:51;18.70;99.90
19435;DHT22;9853;50.848;4.108;2023-06-22T11:45:52;18.90;99.90
19435;DHT22;9853;50.848;4.108;2023-06-22T11:47:53;18.90;99.90
19435;DHT22;9853;50.848;4.108;2023-06-22T11:49:54;18.90;99.90
19435;DHT22;9853;50.848;4.108;2023-06-22T11:51:55;19.00;99.90
19435;DHT22;9853;50.848;4.108;2023-06-22T11:53:56;19.10;99.90
19435;DHT22;9853;50.848;4.108;2023-06-22T11:55:56;19.10;99.90
19435;DHT22;9853;50.848;4.108;2023-06-22T11:57:57;19.10;99.90
19435;DHT22;9853;50.848;4.108;2023-06-22T12:00:04;19.10;99.90
19435;DHT22;9853;50.848;4.108;2023-06-22T12:02:18;19.20;99.90
19435;DHT22;9853;50.848;4.108;2023-06-22T12:04:19;19.20;99.90
19435;DHT22;9853;50.848;4.108;2023-06-22T12:06:19;19.30;99.90
19435;DHT22;9853;50.848;4.108;2023-06-22T12:08:21;19.30;99.90
19435;DHT22;9853;50.848;4.108;2023-06-22T12:10:22;19.20;99.90
19435;DHT22;9853;50.848;4.108;2023-06-22T12:12:24;19.50;99.90
19435;DHT22;9853;50.848;4.108;2023-06-22T12:14:27;19.80;99.90
19435;DHT22;9853;50.848;4.108;2023-06-22T12:16:36;19.80;99.90
19435;DHT22;9853;50.848;4.108;2023-06-22T12:18:38;19.60;99.90
19435;DHT22;9853;50.848;4.108;2023-06-22T12:20:39;19.60;99.90
19435;DHT22;9853;50.848;4.108;2023-06-22T12:22:43;19.70;99.90
19435;DHT22;9853;50.848;4.108;2023-06-22T12:24:44;19.80;99.90
19435;DHT22;9853;50.848;4.108;2023-06-22T12:26:44;20.00;99.90
19435;DHT22;9853;50.848;4.108;2023-06-22T12:28:45;20.10;99.90
19435;DHT22;9853;50.848;4.108;2023-06-22T12:30:48;19.60;99.90
19435;DHT22;9853;50.848;4.108;2023-06-22T12:32:48;19.30;99.90
19435;DHT22;9853;50.848;4.108;2023-06-22T12:34:51;19.20;99.90
19435;DHT22;9853;50.848;4.108;2023-06-22T12:36:52;19.20;99.90
19435;DHT22;9853;50.848;4.108;2023-06-22T12:38:55;19.20;99.90
19435;DHT22;9853;50.848;4.108;2023-06-22T12:40:55;19.30;99.90
19435;DHT22;9853;50.848;4.108;2023-06-22T12:42:56;19.40;99.90
19435;DHT22;9853;50.848;4.108;2023-06-22T12:44:57;19.40;99.90
19435;DHT22;9853;50.848;4.108;2023-06-22T12:46:58;19.60;99.90
19435;DHT22;9853;50.848;4.108;2023-06-22T12:48:59;19.50;99.90
19435;DHT22;9853;50.848;4.108;2023-06-22T12:51:01;19.60;99.90
19435;DHT22;9853;50.848;4.108;2023-06-22T12:53:02;19.70;99.90
19435;DHT22;9853;50.848;4.108;2023-06-22T12:55:07;19.60;99.90
19435;DHT22;9853;50.848;4.108;2023-06-22T12:57:08;19.60;99.90
19435;DHT22;9853;50.848;4.108;2023-06-22T12:59:09;19.80;99.90
19435;DHT22;9853;50.848;4.108;2023-06-22T13:01:10;19.80;99.90
19435;DHT22;9853;50.848;4.108;2023-06-22T13:03:11;19.80;99.90
19435;DHT22;9853;50.848;4.108;2023-06-22T13:05:11;19.40;99.90
19435;DHT22;9853;50.848;4.108;2023-06-22T13:07:12;19.30;99.90